createdAt,value
2019-03-23T00:00:19.608Z,315.50
2019-03-23T00:01:19.589Z,294.10
2019-03-23T00:02:19.578Z,295.30
2019-03-23T00:03:19.568Z,300.20
2019-03-23T00:04:19.557Z,308.20
2019-03-23T00:05:19.546Z,324.90
2019-03-23T00:06:30.224Z,308.70
2019-03-23T00:07:20.522Z,302.50
2019-03-23T00:08:19.513Z,321.40
2019-03-23T00:09:19.504Z,253.60
2019-03-23T00:10:19.494Z,302.70
2019-03-23T00:11:19.480Z,294.50
2019-03-23T00:12:19.469Z,298.50
2019-03-23T00:13:19.459Z,303.70
2019-03-23T00:14:19.449Z,311.20
2019-03-23T00:15:19.441Z,286.20
2019-03-23T00:16:19.427Z,274.20
2019-03-23T00:17:19.454Z,271.70
2019-03-23T00:18:19.420Z,314.20
2019-03-23T00:19:19.401Z,266.30
2019-03-23T00:20:19.383Z,311.40
2019-03-23T00:21:19.372Z,347.30
2019-03-23T00:22:19.363Z,345.10
2019-03-23T00:23:19.351Z,342.40
2019-03-23T00:24:19.343Z,349.50
2019-03-23T00:25:19.335Z,316.20
2019-03-23T00:26:19.321Z,283.10
2019-03-23T00:27:19.311Z,275.00
2019-03-23T00:28:19.301Z,258.50
2019-03-23T00:29:19.290Z,270.80
2019-03-23T00:30:19.279Z,288.90
2019-03-23T00:31:19.265Z,299.30
2019-03-23T00:32:19.255Z,266.80
2019-03-23T00:33:19.242Z,277.00
2019-03-23T00:34:19.233Z,394.50
2019-03-23T00:35:19.228Z,239.00
2019-03-23T00:36:19.213Z,252.00
2019-03-23T00:37:19.201Z,289.90
2019-03-23T00:38:19.192Z,299.50
2019-03-23T00:39:19.179Z,282.60
2019-03-23T00:40:19.169Z,315.90
2019-03-23T00:41:19.157Z,206.30
2019-03-23T00:42:19.154Z,254.20
2019-03-23T00:43:19.135Z,239.70
2019-03-23T00:44:19.124Z,352.90
2019-03-23T00:45:19.115Z,378.00
2019-03-23T00:46:19.105Z,290.80
2019-03-23T00:47:19.091Z,295.40
2019-03-23T00:48:19.091Z,342.40
2019-03-23T00:49:19.071Z,268.70
2019-03-23T00:50:19.059Z,332.10
2019-03-23T00:51:19.047Z,361.50
2019-03-23T00:52:19.080Z,345.00
2019-03-23T00:53:19.028Z,230.60
2019-03-23T00:54:19.019Z,300.00
2019-03-23T00:55:19.004Z,256.50
2019-03-23T00:56:18.997Z,368.60
2019-03-23T00:57:18.983Z,251.90
2019-03-23T00:58:18.974Z,306.80
2019-03-23T00:59:18.964Z,342.10
2019-03-23T01:00:18.954Z,272.90
2019-03-23T01:01:18.942Z,343.30
2019-03-23T01:02:18.930Z,319.40
2019-03-23T01:03:18.920Z,338.30
2019-03-23T01:04:18.912Z,360.80
2019-03-23T01:05:18.901Z,395.30
2019-03-23T01:06:18.886Z,311.30
2019-03-23T01:07:18.876Z,332.20
2019-03-23T01:08:18.867Z,333.50
2019-03-23T01:09:18.853Z,323.30
2019-03-23T01:10:18.844Z,356.80
2019-03-23T01:11:18.833Z,354.10
2019-03-23T01:12:18.820Z,335.90
2019-03-23T01:13:18.813Z,290.40
2019-03-23T01:14:18.803Z,318.60
2019-03-23T01:15:18.790Z,311.30
2019-03-23T01:16:18.777Z,361.40
2019-03-23T01:17:18.767Z,351.10
2019-03-23T01:18:18.758Z,312.10
2019-03-23T01:19:18.746Z,297.00
2019-03-23T01:20:18.737Z,303.70
2019-03-23T01:21:18.723Z,379.10
2019-03-23T01:22:18.716Z,335.80
2019-03-23T01:23:18.703Z,299.60
2019-03-23T01:24:18.694Z,349.00
2019-03-23T01:25:20.832Z,351.50
2019-03-23T01:26:18.672Z,317.30
2019-03-23T01:27:18.660Z,345.00
2019-03-23T01:28:18.654Z,328.80
2019-03-23T01:29:18.640Z,382.90
2019-03-23T01:30:18.628Z,335.10
2019-03-23T01:31:18.616Z,299.20
2019-03-23T01:32:18.608Z,307.10
2019-03-23T01:33:18.597Z,302.70
2019-03-23T01:34:18.584Z,380.70
2019-03-23T01:35:18.575Z,647.70
2019-03-23T01:36:18.568Z,406.00
2019-03-23T01:37:18.553Z,396.60
2019-03-23T01:38:18.544Z,296.50
2019-03-23T01:39:18.532Z,343.30
2019-03-23T01:40:18.522Z,381.20
2019-03-23T01:41:18.513Z,354.90
2019-03-23T01:42:18.501Z,311.60
2019-03-23T01:43:18.516Z,308.70
2019-03-23T01:44:18.476Z,273.50
2019-03-23T01:45:18.466Z,258.80
2019-03-23T01:46:18.455Z,248.20
2019-03-23T01:47:18.444Z,243.10
2019-03-23T01:48:18.439Z,244.40
2019-03-23T01:49:18.423Z,215.00
2019-03-23T01:50:18.412Z,242.70
2019-03-23T01:51:18.401Z,227.40
2019-03-23T01:52:18.393Z,232.00
2019-03-23T01:53:18.381Z,250.20
2019-03-23T01:54:18.369Z,244.80
2019-03-23T01:55:18.357Z,270.30
2019-03-23T01:56:18.347Z,273.20
2019-03-23T01:57:18.340Z,281.90
2019-03-23T01:58:18.329Z,298.90
2019-03-23T01:59:18.314Z,331.80
2019-03-23T02:00:18.308Z,318.80
2019-03-23T02:01:18.293Z,339.60
2019-03-23T02:02:18.283Z,291.00
2019-03-23T02:03:18.273Z,306.10
2019-03-23T02:04:18.264Z,310.10
2019-03-23T02:05:18.250Z,303.30
2019-03-23T02:06:18.246Z,329.30
2019-03-23T02:07:18.228Z,327.70
2019-03-23T02:08:18.221Z,335.70
2019-03-23T02:09:18.206Z,380.50
2019-03-23T02:10:18.196Z,377.90
2019-03-23T02:11:18.186Z,323.60
2019-03-23T02:12:18.174Z,317.40
2019-03-23T02:13:18.164Z,402.60
2019-03-23T02:14:18.155Z,359.10
2019-03-23T02:15:18.144Z,346.20
2019-03-23T02:16:18.135Z,336.30
2019-03-23T02:17:18.123Z,346.20
2019-03-23T02:18:18.116Z,335.60
2019-03-23T02:19:18.100Z,335.00
2019-03-23T02:20:18.093Z,346.00
2019-03-23T02:21:18.081Z,367.70
2019-03-23T02:22:18.068Z,369.30
2019-03-23T02:23:18.064Z,359.70
2019-03-23T02:24:18.045Z,400.30
2019-03-23T02:25:18.036Z,357.00
2019-03-23T02:26:18.034Z,370.00
2019-03-23T02:27:18.016Z,388.20
2019-03-23T02:28:18.007Z,437.50
2019-03-23T02:29:17.992Z,422.10
2019-03-23T02:30:17.980Z,489.10
2019-03-23T02:31:17.972Z,514.60
2019-03-23T02:32:17.961Z,525.30
2019-03-23T02:33:17.954Z,571.20
2019-03-23T02:34:17.946Z,622.20
2019-03-23T02:35:17.931Z,593.20
2019-03-23T02:36:17.932Z,649.70
2019-03-23T02:37:27.551Z,591.90
2019-03-23T02:38:18.902Z,547.40
2019-03-23T02:39:17.892Z,675.40
2019-03-23T02:40:17.880Z,664.40
2019-03-23T02:41:17.862Z,621.30
2019-03-23T02:42:17.854Z,631.70
2019-03-23T02:43:17.842Z,610.20
2019-03-23T02:44:17.831Z,666.70
2019-03-23T02:45:17.830Z,700.50
2019-03-23T02:46:17.825Z,649.60
2019-03-23T02:47:17.803Z,720.50
2019-03-23T02:48:17.802Z,675.40
2019-03-23T02:49:17.780Z,640.80
2019-03-23T02:50:17.831Z,666.40
2019-03-23T02:51:17.756Z,637.70
2019-03-23T02:52:17.744Z,665.00
2019-03-23T02:53:17.738Z,706.30
2019-03-23T02:54:17.722Z,705.70
2019-03-23T02:55:17.716Z,728.00
2019-03-23T02:56:17.719Z,644.70
2019-03-23T02:57:17.691Z,630.70
2019-03-23T02:58:21.618Z,592.50
2019-03-23T02:59:17.670Z,672.90
2019-03-23T03:00:17.660Z,673.90
2019-03-23T03:01:17.653Z,739.10
2019-03-23T03:02:17.637Z,732.70
2019-03-23T03:03:17.626Z,635.30
2019-03-23T03:04:17.618Z,699.70
2019-03-23T03:05:17.604Z,617.50
2019-03-23T03:06:17.596Z,695.60
2019-03-23T03:07:17.581Z,702.50
2019-03-23T03:08:17.578Z,724.90
2019-03-23T03:09:17.562Z,694.40
2019-03-23T03:10:17.551Z,689.40
2019-03-23T03:11:17.584Z,701.50
2019-03-23T03:12:17.536Z,715.00
2019-03-23T03:13:17.516Z,672.90
2019-03-23T03:14:17.507Z,646.70
2019-03-23T03:15:17.497Z,671.70
2019-03-23T03:16:17.485Z,620.80
2019-03-23T03:17:17.473Z,631.90
2019-03-23T03:18:17.465Z,627.10
2019-03-23T03:19:17.457Z,714.30
2019-03-23T03:20:17.441Z,711.30
2019-03-23T03:21:17.437Z,601.50
2019-03-23T03:22:17.420Z,603.20
2019-03-23T03:23:17.415Z,659.20
2019-03-23T03:24:17.401Z,598.20
2019-03-23T03:25:17.392Z,664.80
2019-03-23T03:26:17.378Z,692.00
2019-03-23T03:27:17.367Z,556.00
2019-03-23T03:28:17.357Z,612.10
2019-03-23T03:29:17.345Z,550.30
2019-03-23T03:30:17.340Z,629.50
2019-03-23T03:31:17.324Z,554.70
2019-03-23T03:32:17.316Z,643.20
2019-03-23T03:33:17.306Z,631.10
2019-03-23T03:34:17.292Z,650.00
2019-03-23T03:35:17.285Z,622.30
2019-03-23T03:36:17.271Z,587.00
2019-03-23T03:37:17.258Z,564.70
2019-03-23T03:38:17.260Z,619.60
2019-03-23T03:39:17.255Z,600.80
2019-03-23T03:40:17.228Z,659.70
2019-03-23T03:41:17.214Z,627.30
2019-03-23T03:42:17.205Z,553.10
2019-03-23T03:43:17.192Z,584.60
2019-03-23T03:44:17.182Z,558.00
2019-03-23T03:45:17.176Z,650.20
2019-03-23T03:46:17.162Z,532.10
2019-03-23T03:47:17.160Z,576.10
2019-03-23T03:48:17.144Z,614.50
2019-03-23T03:49:17.130Z,616.20
2019-03-23T03:50:17.119Z,619.70
2019-03-23T03:51:17.106Z,642.80
2019-03-23T03:52:17.096Z,610.60
2019-03-23T03:53:17.086Z,634.50
2019-03-23T03:54:17.075Z,650.60
2019-03-23T03:55:17.062Z,649.20
2019-03-23T03:56:17.053Z,639.90
2019-03-23T03:57:17.044Z,664.40
2019-03-23T03:58:17.038Z,616.30
2019-03-23T03:59:17.019Z,640.80
2019-03-23T04:00:17.008Z,609.60
2019-03-23T04:01:16.998Z,548.30
2019-03-23T04:02:16.992Z,708.90
2019-03-23T04:03:16.978Z,604.70
2019-03-23T04:04:16.968Z,664.40
2019-03-23T04:05:16.981Z,677.30
2019-03-23T04:06:16.946Z,656.40
2019-03-23T04:07:16.936Z,590.80
2019-03-23T04:08:16.929Z,567.80
2019-03-23T04:09:16.912Z,661.80
2019-03-23T04:10:16.904Z,702.60
2019-03-23T04:11:16.902Z,659.90
2019-03-23T04:12:16.882Z,653.90
2019-03-23T04:13:16.869Z,570.10
2019-03-23T04:14:16.864Z,667.70
2019-03-23T04:15:16.850Z,709.50
2019-03-23T04:16:16.840Z,692.10
2019-03-23T04:17:16.831Z,665.60
2019-03-23T04:18:16.818Z,663.60
2019-03-23T04:19:16.807Z,671.30
2019-03-23T04:20:16.798Z,601.70
2019-03-23T04:21:16.785Z,682.30
2019-03-23T04:22:16.774Z,627.50
2019-03-23T04:23:16.762Z,680.30
2019-03-23T04:24:16.753Z,723.80
2019-03-23T04:25:16.743Z,711.00
2019-03-23T04:26:16.748Z,628.00
2019-03-23T04:27:16.725Z,588.00
2019-03-23T04:28:16.708Z,635.90
2019-03-23T04:29:16.699Z,698.60
2019-03-23T04:30:16.689Z,655.40
2019-03-23T04:31:16.683Z,614.40
2019-03-23T04:32:16.665Z,645.50
2019-03-23T04:33:16.654Z,632.50
2019-03-23T04:34:16.646Z,626.30
2019-03-23T04:35:16.639Z,583.80
2019-03-23T04:36:16.622Z,678.40
2019-03-23T04:37:16.610Z,670.70
2019-03-23T04:38:22.543Z,647.70
2019-03-23T04:39:17.590Z,638.00
2019-03-23T04:40:16.585Z,645.50
2019-03-23T04:41:16.572Z,652.70
2019-03-23T04:42:16.559Z,656.50
2019-03-23T04:43:16.546Z,579.70
2019-03-23T04:44:16.535Z,616.80
2019-03-23T04:45:16.527Z,672.10
2019-03-23T04:46:16.517Z,645.00
2019-03-23T04:47:16.505Z,585.20
2019-03-23T04:48:16.493Z,529.20
2019-03-23T04:49:16.481Z,572.70
2019-03-23T04:50:16.473Z,562.60
2019-03-23T04:51:16.464Z,598.20
2019-03-23T04:52:16.450Z,599.60
2019-03-23T04:53:16.438Z,534.70
2019-03-23T04:54:16.427Z,542.60
2019-03-23T04:55:16.418Z,552.80
2019-03-23T04:56:16.411Z,625.70
2019-03-23T04:57:16.394Z,654.40
2019-03-23T04:58:16.390Z,660.60
2019-03-23T04:59:16.373Z,616.90
2019-03-23T05:00:16.386Z,549.20
2019-03-23T05:01:16.353Z,643.50
2019-03-23T05:02:16.342Z,584.40
2019-03-23T05:03:16.330Z,504.60
2019-03-23T05:04:16.318Z,608.80
2019-03-23T05:05:16.320Z,599.00
2019-03-23T05:06:16.303Z,576.30
2019-03-23T05:07:16.290Z,538.80
2019-03-23T05:08:16.282Z,608.80
2019-03-23T05:09:16.266Z,523.40
2019-03-23T05:10:16.253Z,500.30
2019-03-23T05:11:16.247Z,467.40
2019-03-23T05:12:16.233Z,530.40
2019-03-23T05:13:16.226Z,549.70
2019-03-23T05:14:16.210Z,538.80
2019-03-23T05:15:16.201Z,546.30
2019-03-23T05:16:16.191Z,506.80
2019-03-23T05:17:16.184Z,582.40
2019-03-23T05:18:16.175Z,528.30
2019-03-23T05:19:16.155Z,591.70
2019-03-23T05:20:16.148Z,535.70
2019-03-23T05:21:16.144Z,557.20
2019-03-23T05:22:16.125Z,584.90
2019-03-23T05:23:16.114Z,563.10
2019-03-23T05:24:16.106Z,543.90
2019-03-23T05:25:16.095Z,589.50
2019-03-23T05:26:16.087Z,575.60
2019-03-23T05:27:16.073Z,551.80
2019-03-23T05:28:16.063Z,579.40
2019-03-23T05:29:16.050Z,578.70
2019-03-23T05:30:16.041Z,586.90
2019-03-23T05:31:16.037Z,500.10
2019-03-23T05:32:16.019Z,582.60
2019-03-23T05:33:16.012Z,646.40
2019-03-23T05:34:15.998Z,520.90
2019-03-23T05:35:15.986Z,612.90
2019-03-23T05:36:15.978Z,672.50
2019-03-23T05:37:15.963Z,495.80
2019-03-23T05:38:15.964Z,621.00
2019-03-23T05:39:15.943Z,623.30
2019-03-23T05:40:15.939Z,625.30
2019-03-23T05:41:15.922Z,629.20
2019-03-23T05:42:15.911Z,524.30
2019-03-23T05:43:15.899Z,594.30
2019-03-23T05:44:15.893Z,562.60
2019-03-23T05:45:15.878Z,533.90
2019-03-23T05:46:15.866Z,553.20
2019-03-23T05:47:15.856Z,556.70
2019-03-23T05:48:15.883Z,608.40
2019-03-23T05:49:15.834Z,577.80
2019-03-23T05:50:15.822Z,571.20
2019-03-23T05:51:15.815Z,497.40
2019-03-23T05:52:15.802Z,487.20
2019-03-23T05:53:15.789Z,347.90
2019-03-23T05:54:15.780Z,560.30
2019-03-23T05:55:15.768Z,361.20
2019-03-23T05:56:15.759Z,331.60
2019-03-23T05:57:15.752Z,309.60
2019-03-23T05:58:15.739Z,500.40
2019-03-23T05:59:15.728Z,519.70
2019-03-23T06:00:15.717Z,610.10
2019-03-23T06:01:15.703Z,524.00
2019-03-23T06:02:15.700Z,601.60
2019-03-23T06:03:15.686Z,485.30
2019-03-23T06:04:15.671Z,533.30
2019-03-23T06:05:15.659Z,559.40
2019-03-23T06:06:15.652Z,521.80
2019-03-23T06:07:15.638Z,505.00
2019-03-23T06:08:15.631Z,489.40
2019-03-23T06:09:15.621Z,497.40
2019-03-23T06:10:15.609Z,475.30
2019-03-23T06:11:15.635Z,572.60
2019-03-23T06:12:17.618Z,469.70
2019-03-23T06:13:15.577Z,466.70
2019-03-23T06:14:15.563Z,463.10
2019-03-23T06:15:15.555Z,502.20
2019-03-23T06:16:17.824Z,497.00
2019-03-23T06:17:15.529Z,466.80
2019-03-23T06:18:15.528Z,464.90
2019-03-23T06:19:15.508Z,538.10
2019-03-23T06:20:15.498Z,479.50
2019-03-23T06:21:15.491Z,477.90
2019-03-23T06:22:15.478Z,422.30
2019-03-23T06:23:15.468Z,413.80
2019-03-23T06:24:15.458Z,374.40
2019-03-23T06:25:15.530Z,408.60
2019-03-23T06:26:15.432Z,369.70
2019-03-23T06:27:15.423Z,480.20
2019-03-23T06:28:15.416Z,442.00
2019-03-23T06:29:15.401Z,388.30
2019-03-23T06:30:15.392Z,496.80
2019-03-23T06:31:15.397Z,503.00
2019-03-23T06:32:15.373Z,386.50
2019-03-23T06:33:15.362Z,468.20
2019-03-23T06:34:15.347Z,425.80
2019-03-23T06:35:15.337Z,451.30
2019-03-23T06:36:15.331Z,441.00
2019-03-23T06:37:15.313Z,374.40
2019-03-23T06:38:16.376Z,423.40
2019-03-23T06:39:15.293Z,311.60
2019-03-23T06:40:15.283Z,267.10
2019-03-23T06:41:15.311Z,335.90
2019-03-23T06:42:15.265Z,387.90
2019-03-23T06:43:15.250Z,433.00
2019-03-23T06:44:15.238Z,264.20
2019-03-23T06:45:15.227Z,221.90
2019-03-23T06:46:15.220Z,190.50
2019-03-23T06:47:15.209Z,137.90
2019-03-23T06:48:15.251Z,217.10
2019-03-23T06:49:15.185Z,165.30
2019-03-23T06:50:15.174Z,177.00
2019-03-23T06:51:15.163Z,147.10
2019-03-23T06:52:15.153Z,108.10
2019-03-23T06:53:15.144Z,113.70
2019-03-23T06:54:15.133Z,106.40
2019-03-23T06:55:15.120Z,121.40
2019-03-23T06:56:15.109Z,92.00
2019-03-23T06:57:15.101Z,120.60
2019-03-23T06:58:15.094Z,92.20
2019-03-23T06:59:15.083Z,74.80
2019-03-23T07:00:15.151Z,68.50
2019-03-23T07:01:15.106Z,59.60
2019-03-23T07:02:15.046Z,70.60
2019-03-23T07:03:15.032Z,75.50
2019-03-23T07:04:15.023Z,75.30
2019-03-23T07:05:15.015Z,56.00
2019-03-23T07:06:15.009Z,56.00
2019-03-23T07:07:14.989Z,50.50
2019-03-23T07:08:14.981Z,51.70
2019-03-23T07:09:16.331Z,45.90
2019-03-23T07:10:14.957Z,47.20
2019-03-23T07:11:14.951Z,41.30
2019-03-23T07:12:14.936Z,39.60
2019-03-23T07:13:14.927Z,36.70
2019-03-23T07:14:14.914Z,38.60
2019-03-23T07:15:19.769Z,37.90
2019-03-23T07:16:15.892Z,35.70
2019-03-23T07:17:14.882Z,36.60
2019-03-23T07:18:14.871Z,35.30
2019-03-23T07:19:14.860Z,33.00
2019-03-23T07:20:14.850Z,35.30
2019-03-23T07:21:14.837Z,32.70
2019-03-23T07:22:14.828Z,32.90
2019-03-23T07:23:14.816Z,32.40
2019-03-23T07:24:14.803Z,32.40
2019-03-23T07:25:14.796Z,32.90
2019-03-23T07:26:14.783Z,33.20
2019-03-23T07:27:14.772Z,32.30
2019-03-23T07:28:14.771Z,34.90
2019-03-23T07:29:14.754Z,31.40
2019-03-23T07:30:14.738Z,33.30
2019-03-23T07:31:14.726Z,34.70
2019-03-23T07:32:14.715Z,32.10
2019-03-23T07:33:14.706Z,32.90
2019-03-23T07:34:14.698Z,34.50
2019-03-23T07:35:14.695Z,32.80
2019-03-23T07:36:14.675Z,34.00
2019-03-23T07:37:14.664Z,34.20
2019-03-23T07:38:14.652Z,30.00
2019-03-23T07:39:14.642Z,33.60
2019-03-23T07:40:14.633Z,30.90
2019-03-23T07:41:14.618Z,32.90
2019-03-23T07:42:14.607Z,31.60
2019-03-23T07:43:14.610Z,29.70
2019-03-23T07:44:14.588Z,32.30
2019-03-23T07:45:14.575Z,30.00
2019-03-23T07:46:14.567Z,31.20
2019-03-23T07:47:14.553Z,32.10
2019-03-23T07:48:14.544Z,32.00
2019-03-23T07:49:14.531Z,29.90
2019-03-23T07:50:14.537Z,32.70
2019-03-23T07:51:14.510Z,33.30
2019-03-23T07:52:14.528Z,31.90
2019-03-23T07:53:14.490Z,32.40
2019-03-23T07:54:14.476Z,31.50
2019-03-23T07:55:14.469Z,32.90
2019-03-23T07:56:14.455Z,31.80
2019-03-23T07:57:14.446Z,31.70
2019-03-23T07:58:14.435Z,31.70
2019-03-23T07:59:14.420Z,31.80
2019-03-23T08:00:14.410Z,32.00
2019-03-23T08:01:14.399Z,31.20
2019-03-23T08:02:14.389Z,30.10
2019-03-23T08:03:14.391Z,32.60
2019-03-23T08:04:14.368Z,33.30
2019-03-23T08:05:14.354Z,34.20
2019-03-23T08:06:14.345Z,34.00
2019-03-23T08:07:14.335Z,31.40
2019-03-23T08:08:14.331Z,35.10
2019-03-23T08:09:20.311Z,32.30
2019-03-23T08:10:15.306Z,32.40
2019-03-23T08:11:14.291Z,32.30
2019-03-23T08:12:14.280Z,33.50
2019-03-23T08:13:14.308Z,35.00
2019-03-23T08:14:14.258Z,34.60
2019-03-23T08:15:14.256Z,32.30
2019-03-23T08:16:14.239Z,36.00
2019-03-23T08:17:14.227Z,35.00
2019-03-23T08:18:14.229Z,32.60
2019-03-23T08:19:14.205Z,31.30
2019-03-23T08:20:14.196Z,33.30
2019-03-23T08:21:14.183Z,31.10
2019-03-23T08:22:14.173Z,33.20
2019-03-23T08:23:14.162Z,33.30
2019-03-23T08:24:14.152Z,34.50
2019-03-23T08:25:14.143Z,33.30
2019-03-23T08:26:14.132Z,34.50
2019-03-23T08:27:14.122Z,32.80
2019-03-23T08:28:14.111Z,35.20
2019-03-23T08:29:14.098Z,33.60
2019-03-23T08:30:14.095Z,34.30
2019-03-23T08:31:14.084Z,32.40
2019-03-23T08:32:14.081Z,33.90
2019-03-23T08:33:14.058Z,33.80
2019-03-23T08:34:14.052Z,30.80
2019-03-23T08:35:14.036Z,33.20
2019-03-23T08:36:14.026Z,34.50
2019-03-23T08:37:14.011Z,32.90
2019-03-23T08:38:14.002Z,33.00
2019-03-23T08:39:13.996Z,36.50
2019-03-23T08:40:13.982Z,35.00
2019-03-23T08:41:13.972Z,33.40
2019-03-23T08:42:13.962Z,31.90
2019-03-23T08:43:13.978Z,34.50
2019-03-23T08:44:13.948Z,33.80
2019-03-23T08:45:13.933Z,37.30
2019-03-23T08:46:13.919Z,32.80
2019-03-23T08:47:13.913Z,32.50
2019-03-23T08:48:13.898Z,35.30
2019-03-23T08:49:13.886Z,33.50
2019-03-23T08:50:13.889Z,33.60
2019-03-23T08:51:13.871Z,33.50
2019-03-23T08:52:13.861Z,33.60
2019-03-23T08:53:13.844Z,34.00
2019-03-23T08:54:13.834Z,34.50
2019-03-23T08:55:13.822Z,35.10
2019-03-23T08:56:13.812Z,33.60
2019-03-23T08:57:13.814Z,35.90
2019-03-23T08:58:13.795Z,31.30
2019-03-23T08:59:13.783Z,34.30
2019-03-23T09:00:13.774Z,31.60
2019-03-23T09:01:13.765Z,33.90
2019-03-23T09:02:13.750Z,35.60
2019-03-23T09:03:13.739Z,35.50
2019-03-23T09:04:13.730Z,34.40
2019-03-23T09:05:13.722Z,35.30
2019-03-23T09:06:13.711Z,34.80
2019-03-23T09:07:13.732Z,32.30
2019-03-23T09:08:13.689Z,32.40
2019-03-23T09:09:13.680Z,34.20
2019-03-23T09:10:13.671Z,35.00
2019-03-23T09:11:20.523Z,31.40
2019-03-23T09:12:14.646Z,35.90
2019-03-23T09:13:13.635Z,32.00
2019-03-23T09:14:13.626Z,33.80
2019-03-23T09:15:13.627Z,32.20
2019-03-23T09:16:13.610Z,33.90
2019-03-23T09:17:13.598Z,31.40
2019-03-23T09:18:13.596Z,31.00
2019-03-23T09:19:13.581Z,35.10
2019-03-23T09:20:13.566Z,37.00
2019-03-23T09:21:13.569Z,31.80
2019-03-23T09:22:13.575Z,33.10
2019-03-23T09:23:13.545Z,33.60
2019-03-23T09:24:13.535Z,32.00
2019-03-23T09:25:13.515Z,32.60
2019-03-23T09:26:13.793Z,31.80
2019-03-23T09:27:13.498Z,33.90
2019-03-23T09:28:13.481Z,34.00
2019-03-23T09:29:13.472Z,33.10
2019-03-23T09:30:13.462Z,35.10
2019-03-23T09:31:13.456Z,32.80
2019-03-23T09:32:13.443Z,35.10
2019-03-23T09:33:13.431Z,32.10
2019-03-23T09:34:13.418Z,34.40
2019-03-23T09:35:13.410Z,33.40
2019-03-23T09:36:13.400Z,32.40
2019-03-23T09:37:13.390Z,32.00
2019-03-23T09:38:13.381Z,36.60
2019-03-23T09:39:13.369Z,33.40
2019-03-23T09:40:13.358Z,34.40
2019-03-23T09:41:13.348Z,34.20
2019-03-23T09:42:13.338Z,35.00
2019-03-23T09:43:13.390Z,32.80
2019-03-23T09:44:13.329Z,33.20
2019-03-23T09:45:14.427Z,30.20
2019-03-23T09:46:13.297Z,33.00
2019-03-23T09:47:13.285Z,30.30
2019-03-23T09:48:13.277Z,32.70
2019-03-23T09:49:13.265Z,31.50
2019-03-23T09:50:13.270Z,32.30
2019-03-23T09:51:13.246Z,31.20
2019-03-23T09:52:13.241Z,31.70
2019-03-23T09:53:13.226Z,32.80
2019-03-23T09:54:13.217Z,32.30
2019-03-23T09:55:13.204Z,33.30
2019-03-23T09:56:13.215Z,32.60
2019-03-23T09:57:13.191Z,30.20
2019-03-23T09:58:13.172Z,31.50
2019-03-23T09:59:13.165Z,30.80
2019-03-23T10:00:13.154Z,29.10
2019-03-23T10:01:13.148Z,33.20
2019-03-23T10:02:13.150Z,31.00
2019-03-23T10:03:13.164Z,30.30
2019-03-23T10:04:13.115Z,31.70
2019-03-23T10:05:13.111Z,31.90
2019-03-23T10:06:13.104Z,31.70
2019-03-23T10:07:13.084Z,31.90
2019-03-23T10:08:14.039Z,31.20
2019-03-23T10:09:13.072Z,31.60
2019-03-23T10:10:21.255Z,31.80
2019-03-23T10:11:14.055Z,29.40
2019-03-23T10:12:13.033Z,29.00
2019-03-23T10:13:13.027Z,28.60
2019-03-23T10:14:13.017Z,27.60
2019-03-23T10:15:13.005Z,30.80
2019-03-23T10:16:12.993Z,30.80
2019-03-23T10:17:12.985Z,31.10
2019-03-23T10:18:12.972Z,29.50
2019-03-23T10:19:12.959Z,29.20
2019-03-23T10:20:12.950Z,30.70
2019-03-23T10:21:12.943Z,28.70
2019-03-23T10:22:12.930Z,30.10
2019-03-23T10:23:12.928Z,31.60
2019-03-23T10:24:12.912Z,30.20
2019-03-23T10:25:12.901Z,29.00
2019-03-23T10:26:12.895Z,31.20
2019-03-23T10:27:12.974Z,30.50
2019-03-23T10:28:12.871Z,33.20
2019-03-23T10:29:12.864Z,32.50
2019-03-23T10:30:12.857Z,30.10
2019-03-23T10:31:12.840Z,28.20
2019-03-23T10:32:12.830Z,28.80
2019-03-23T10:33:12.819Z,30.70
2019-03-23T10:34:12.806Z,29.30
2019-03-23T10:35:12.796Z,28.30
2019-03-23T10:36:12.794Z,30.40
2019-03-23T10:37:12.774Z,30.50
2019-03-23T10:38:12.769Z,29.50
2019-03-23T10:39:12.758Z,28.60
2019-03-23T10:40:12.746Z,29.20
2019-03-23T10:41:12.736Z,31.20
2019-03-23T10:42:12.731Z,29.20
2019-03-23T10:43:12.719Z,27.70
2019-03-23T10:44:12.709Z,28.90
2019-03-23T10:45:12.704Z,29.50
2019-03-23T10:46:12.687Z,27.80
2019-03-23T10:47:12.722Z,28.60
2019-03-23T10:48:12.673Z,30.60
2019-03-23T10:49:12.661Z,28.20
2019-03-23T10:50:12.647Z,29.30
2019-03-23T10:51:12.640Z,27.20
2019-03-23T10:52:12.634Z,30.90
2019-03-23T10:53:15.614Z,29.00
2019-03-23T10:54:13.605Z,27.80
2019-03-23T10:55:12.594Z,30.10
2019-03-23T10:56:12.583Z,29.10
2019-03-23T10:57:12.573Z,28.70
2019-03-23T10:58:12.564Z,28.80
2019-03-23T10:59:12.553Z,29.30
2019-03-23T11:00:12.544Z,27.60
2019-03-23T11:01:12.534Z,28.00
2019-03-23T11:02:12.524Z,27.80
2019-03-23T11:03:12.513Z,31.10
2019-03-23T11:04:12.504Z,29.40
2019-03-23T11:05:12.494Z,28.90
2019-03-23T11:06:12.483Z,28.90
2019-03-23T11:07:12.476Z,30.30
2019-03-23T11:08:12.469Z,29.00
2019-03-23T11:09:12.457Z,29.80
2019-03-23T11:10:12.457Z,28.60
2019-03-23T11:11:12.440Z,30.00
2019-03-23T11:12:12.425Z,27.80
2019-03-23T11:13:12.416Z,31.40
2019-03-23T11:14:12.407Z,29.50
2019-03-23T11:15:12.397Z,29.30
2019-03-23T11:16:12.396Z,28.80
2019-03-23T11:17:12.377Z,31.20
2019-03-23T11:18:12.372Z,31.60
2019-03-23T11:19:13.530Z,29.40
2019-03-23T11:20:12.351Z,30.80
2019-03-23T11:21:12.489Z,32.80
2019-03-23T11:22:12.336Z,31.40
2019-03-23T11:23:12.317Z,30.00
2019-03-23T11:24:12.307Z,29.00
2019-03-23T11:25:12.294Z,29.90
2019-03-23T11:26:12.290Z,31.40
2019-03-23T11:27:12.277Z,35.00
2019-03-23T11:28:12.273Z,29.40
2019-03-23T11:29:12.259Z,30.50
2019-03-23T11:30:12.245Z,31.90
2019-03-23T11:31:12.235Z,30.70
2019-03-23T11:32:12.226Z,33.50
2019-03-23T11:33:12.223Z,31.40
2019-03-23T11:34:17.833Z,31.20
2019-03-23T11:35:13.325Z,33.50
2019-03-23T11:36:12.186Z,34.50
2019-03-23T11:37:12.282Z,33.30
2019-03-23T11:38:12.206Z,32.00
2019-03-23T11:39:12.153Z,31.10
2019-03-23T11:40:12.147Z,34.50
2019-03-23T11:41:12.132Z,34.20
2019-03-23T11:42:12.124Z,32.50
2019-03-23T11:43:12.112Z,34.70
2019-03-23T11:44:12.103Z,30.40
2019-03-23T11:45:12.091Z,34.80
2019-03-23T11:46:12.084Z,33.20
2019-03-23T11:47:12.076Z,33.90
2019-03-23T11:48:12.063Z,33.80
2019-03-23T11:49:12.056Z,35.00
2019-03-23T11:50:12.040Z,36.10
2019-03-23T11:51:12.031Z,36.20
2019-03-23T11:52:12.024Z,34.50
2019-03-23T11:53:12.011Z,38.60
2019-03-23T11:54:12.001Z,38.40
2019-03-23T11:55:11.989Z,37.10
2019-03-23T11:56:11.980Z,40.00
2019-03-23T11:57:11.970Z,38.40
2019-03-23T11:58:11.964Z,38.70
2019-03-23T11:59:11.947Z,40.10
2019-03-23T12:00:11.945Z,40.40
2019-03-23T12:01:11.933Z,44.10
2019-03-23T12:02:11.917Z,42.00
2019-03-23T12:03:11.910Z,44.30
2019-03-23T12:04:11.900Z,44.50
2019-03-23T12:05:11.887Z,41.40
2019-03-23T12:06:11.878Z,43.30
2019-03-23T12:07:11.865Z,43.70
2019-03-23T12:08:11.864Z,42.80
2019-03-23T12:09:11.845Z,41.90
2019-03-23T12:10:11.842Z,41.40
2019-03-23T12:11:11.825Z,38.60
2019-03-23T12:12:11.813Z,39.50
2019-03-23T12:13:11.808Z,40.00
2019-03-23T12:14:11.794Z,40.20
2019-03-23T12:15:11.785Z,39.10
2019-03-23T12:16:11.774Z,42.70
2019-03-23T12:17:11.791Z,41.30
2019-03-23T12:18:11.752Z,42.80
2019-03-23T12:19:11.768Z,43.40
2019-03-23T12:20:11.731Z,42.30
2019-03-23T12:21:11.727Z,43.10
2019-03-23T12:22:11.711Z,43.50
2019-03-23T12:23:11.702Z,45.30
2019-03-23T12:24:11.691Z,42.90
2019-03-23T12:25:11.681Z,45.00
2019-03-23T12:26:11.666Z,44.70
2019-03-23T12:27:11.657Z,43.50
2019-03-23T12:28:11.652Z,42.70
2019-03-23T12:29:11.637Z,42.20
2019-03-23T12:30:11.627Z,43.40
2019-03-23T12:31:11.614Z,45.30
2019-03-23T12:32:11.608Z,42.30
2019-03-23T12:33:11.594Z,42.80
2019-03-23T12:34:11.589Z,45.20
2019-03-23T12:35:11.575Z,45.60
2019-03-23T12:36:11.568Z,45.00
2019-03-23T12:37:11.552Z,42.70
2019-03-23T12:38:11.545Z,44.00
2019-03-23T12:39:11.530Z,41.90